sensor_id;sensor_type;location;lat;lon;timestamp;P1;durP1;ratioP1;P2;durP2;ratioP2
44722;SDS011;30451;48.638;10.624;2023-04-01T00:00:44;12.32;;;10.32;;
44722;SDS011;30451;48.638;10.624;2023-04-01T00:03:10;13.18;;;11.00;;
44722;SDS011;30451;48.638;10.624;2023-04-01T00:05:36;13.15;;;10.65;;
44722;SDS011;30451;48.638;10.624;2023-04-01T00:08:02;11.65;;;10.25;;
44722;SDS011;30451;48.638;10.624;2023-04-01T00:10:28;12.00;;;10.50;;
44722;SDS011;30451;48.638;10.624;2023-04-01T00:12:53;13.18;;;10.70;;
44722;SDS011;30451;48.638;10.624;2023-04-01T00:15:19;10.35;;;9.25;;
44722;SDS011;30451;48.638;10.624;2023-04-01T00:17:45;11.38;;;9.50;;
44722;SDS011;30451;48.638;10.624;2023-04-01T00:20:11;10.98;;;9.65;;
44722;SDS011;30451;48.638;10.624;2023-04-01T00:22:37;10.75;;;9.40;;
44722;SDS011;30451;48.638;10.624;2023-04-01T00:25:03;10.40;;;8.90;;
44722;SDS011;30451;48.638;10.624;2023-04-01T00:27:29;10.38;;;8.90;;
44722;SDS011;30451;48.638;10.624;2023-04-01T00:29:55;9.43;;;8.43;;
44722;SDS011;30451;48.638;10.624;2023-04-01T00:32:21;10.57;;;8.15;;
44722;SDS011;30451;48.638;10.624;2023-04-01T00:34:49;10.43;;;8.63;;
44722;SDS011;30451;48.638;10.624;2023-04-01T00:37:16;10.45;;;7.97;;
44722;SDS011;30451;48.638;10.624;2023-04-01T00:39:42;9.55;;;7.55;;
44722;SDS011;30451;48.638;10.624;2023-04-01T00:42:09;9.02;;;7.80;;
44722;SDS011;30451;48.638;10.624;2023-04-01T00:44:36;9.32;;;7.72;;
44722;SDS011;30451;48.638;10.624;2023-04-01T00:47:03;8.77;;;7.18;;
44722;SDS011;30451;48.638;10.624;2023-04-01T00:49:33;7.97;;;7.00;;
44722;SDS011;30451;48.638;10.624;2023-04-01T00:52:03;9.30;;;7.38;;
44722;SDS011;30451;48.638;10.624;2023-04-01T00:54:30;8.07;;;6.22;;
44722;SDS011;30451;48.638;10.624;2023-04-01T00:57:01;8.75;;;7.32;;
44722;SDS011;30451;48.638;10.624;2023-04-01T00:59:32;7.43;;;6.03;;
44722;SDS011;30451;48.638;10.624;2023-04-01T01:02:04;7.68;;;6.30;;
44722;SDS011;30451;48.638;10.624;2023-04-01T01:04:33;7.32;;;6.00;;
44722;SDS011;30451;48.638;10.624;2023-04-01T01:09:35;7.25;;;5.72;;
44722;SDS011;30451;48.638;10.624;2023-04-01T01:12:39;8.02;;;6.25;;
44722;SDS011;30451;48.638;10.624;2023-04-01T01:15:19;6.93;;;5.60;;
44722;SDS011;30451;48.638;10.624;2023-04-01T01:18:03;6.50;;;5.10;;
44722;SDS011;30451;48.638;10.624;2023-04-01T01:31:12;6.47;;;5.30;;
44722;SDS011;30451;48.638;10.624;2023-04-01T01:36:28;5.55;;;4.63;;
44722;SDS011;30451;48.638;10.624;2023-04-01T01:38:59;6.00;;;4.88;;
44722;SDS011;30451;48.638;10.624;2023-04-01T01:41:28;5.60;;;4.88;;
44722;SDS011;30451;48.638;10.624;2023-04-01T01:43:55;6.25;;;4.82;;
44722;SDS011;30451;48.638;10.624;2023-04-01T01:46:24;5.43;;;4.13;;
44722;SDS011;30451;48.638;10.624;2023-04-01T01:48:53;5.45;;;4.32;;
44722;SDS011;30451;48.638;10.624;2023-04-01T01:51:20;5.63;;;4.55;;
44722;SDS011;30451;48.638;10.624;2023-04-01T01:53:47;5.07;;;4.35;;
44722;SDS011;30451;48.638;10.624;2023-04-01T01:56:13;4.68;;;4.00;;
44722;SDS011;30451;48.638;10.624;2023-04-01T01:58:45;5.63;;;4.10;;
44722;SDS011;30451;48.638;10.624;2023-04-01T02:01:15;4.85;;;3.60;;
44722;SDS011;30451;48.638;10.624;2023-04-01T02:03:45;5.15;;;4.00;;
44722;SDS011;30451;48.638;10.624;2023-04-01T02:06:13;4.72;;;3.90;;
44722;SDS011;30451;48.638;10.624;2023-04-01T02:08:43;4.13;;;3.30;;
44722;SDS011;30451;48.638;10.624;2023-04-01T02:11:18;4.63;;;3.78;;
44722;SDS011;30451;48.638;10.624;2023-04-01T02:14:04;5.13;;;3.75;;
44722;SDS011;30451;48.638;10.624;2023-04-01T02:16:36;4.88;;;3.60;;
44722;SDS011;30451;48.638;10.624;2023-04-01T02:19:08;4.38;;;3.67;;
44722;SDS011;30451;48.638;10.624;2023-04-01T02:21:37;5.05;;;3.80;;
44722;SDS011;30451;48.638;10.624;2023-04-01T02:24:05;5.35;;;3.65;;
44722;SDS011;30451;48.638;10.624;2023-04-01T02:26:35;4.22;;;3.28;;
44722;SDS011;30451;48.638;10.624;2023-04-01T02:29:00;4.47;;;3.28;;
44722;SDS011;30451;48.638;10.624;2023-04-01T02:31:28;4.35;;;3.42;;
44722;SDS011;30451;48.638;10.624;2023-04-01T02:33:55;4.53;;;3.67;;
44722;SDS011;30451;48.638;10.624;2023-04-01T02:36:21;4.30;;;3.35;;
44722;SDS011;30451;48.638;10.624;2023-04-01T02:38:47;4.13;;;3.05;;
44722;SDS011;30451;48.638;10.624;2023-04-01T02:41:16;4.57;;;3.45;;
44722;SDS011;30451;48.638;10.624;2023-04-01T02:43:41;3.53;;;3.10;;
44722;SDS011;30451;48.638;10.624;2023-04-01T02:46:07;3.80;;;2.85;;
44722;SDS011;30451;48.638;10.624;2023-04-01T02:48:33;4.20;;;2.97;;
44722;SDS011;30451;48.638;10.624;2023-04-01T02:50:58;4.45;;;3.00;;
44722;SDS011;30451;48.638;10.624;2023-04-01T02:53:24;4.15;;;3.17;;
44722;SDS011;30451;48.638;10.624;2023-04-01T02:55:50;4.00;;;2.92;;
44722;SDS011;30451;48.638;10.624;2023-04-01T02:58:16;3.88;;;3.15;;
44722;SDS011;30451;48.638;10.624;2023-04-01T03:00:42;4.43;;;3.25;;
44722;SDS011;30451;48.638;10.624;2023-04-01T03:03:08;4.30;;;3.20;;
44722;SDS011;30451;48.638;10.624;2023-04-01T03:05:38;4.10;;;3.20;;
44722;SDS011;30451;48.638;10.624;2023-04-01T03:08:04;3.40;;;2.67;;
44722;SDS011;30451;48.638;10.624;2023-04-01T03:10:31;3.40;;;2.83;;
44722;SDS011;30451;48.638;10.624;2023-04-01T03:12:57;3.38;;;2.50;;
44722;SDS011;30451;48.638;10.624;2023-04-01T03:15:22;3.13;;;2.42;;
44722;SDS011;30451;48.638;10.624;2023-04-01T03:17:48;3.53;;;2.70;;
44722;SDS011;30451;48.638;10.624;2023-04-01T03:20:14;4.10;;;3.00;;
44722;SDS011;30451;48.638;10.624;2023-04-01T03:22:40;3.83;;;2.70;;
44722;SDS011;30451;48.638;10.624;2023-04-01T03:25:06;3.40;;;2.50;;
44722;SDS011;30451;48.638;10.624;2023-04-01T03:27:33;3.88;;;2.72;;
44722;SDS011;30451;48.638;10.624;2023-04-01T03:30:00;3.55;;;2.80;;
44722;SDS011;30451;48.638;10.624;2023-04-01T03:32:26;3.25;;;2.45;;
44722;SDS011;30451;48.638;10.624;2023-04-01T03:34:52;3.42;;;2.60;;
44722;SDS011;30451;48.638;10.624;2023-04-01T03:37:18;3.38;;;2.60;;
44722;SDS011;30451;48.638;10.624;2023-04-01T03:39:43;3.42;;;2.60;;
44722;SDS011;30451;48.638;10.624;2023-04-01T03:42:10;3.45;;;2.47;;
44722;SDS011;30451;48.638;10.624;2023-04-01T03:44:36;3.65;;;2.50;;
44722;SDS011;30451;48.638;10.624;2023-04-01T03:47:01;3.53;;;2.40;;
44722;SDS011;30451;48.638;10.624;2023-04-01T03:49:27;2.95;;;2.13;;
44722;SDS011;30451;48.638;10.624;2023-04-01T03:51:53;3.42;;;2.30;;
44722;SDS011;30451;48.638;10.624;2023-04-01T03:54:19;3.03;;;2.20;;
44722;SDS011;30451;48.638;10.624;2023-04-01T03:56:45;3.33;;;2.20;;
44722;SDS011;30451;48.638;10.624;2023-04-01T03:59:11;2.97;;;2.10;;
44722;SDS011;30451;48.638;10.624;2023-04-01T04:01:37;3.20;;;2.10;;
44722;SDS011;30451;48.638;10.624;2023-04-01T04:04:03;3.22;;;2.38;;
44722;SDS011;30451;48.638;10.624;2023-04-01T04:06:30;2.75;;;1.90;;
44722;SDS011;30451;48.638;10.624;2023-04-01T04:08:55;2.70;;;2.10;;
44722;SDS011;30451;48.638;10.624;2023-04-01T04:11:22;3.20;;;2.22;;
44722;SDS011;30451;48.638;10.624;2023-04-01T04:13:48;2.90;;;2.13;;
44722;SDS011;30451;48.638;10.624;2023-04-01T04:16:14;3.17;;;2.20;;
44722;SDS011;30451;48.638;10.624;2023-04-01T04:18:40;3.00;;;2.05;;
44722;SDS011;30451;48.638;10.624;2023-04-01T04:21:06;2.80;;;2.05;;
44722;SDS011;30451;48.638;10.624;2023-04-01T04:23:31;2.90;;;2.10;;
44722;SDS011;30451;48.638;10.624;2023-04-01T04:26:05;2.70;;;2.00;;
44722;SDS011;30451;48.638;10.624;2023-04-01T04:28:31;2.53;;;1.80;;
44722;SDS011;30451;48.638;10.624;2023-04-01T04:30:58;3.00;;;1.90;;
44722;SDS011;30451;48.638;10.624;2023-04-01T04:33:24;2.83;;;1.98;;
44722;SDS011;30451;48.638;10.624;2023-04-01T04:35:51;2.80;;;1.95;;
44722;SDS011;30451;48.638;10.624;2023-04-01T04:38:20;2.60;;;1.83;;
44722;SDS011;30451;48.638;10.624;2023-04-01T04:40:46;2.75;;;1.85;;
44722;SDS011;30451;48.638;10.624;2023-04-01T04:43:12;2.67;;;1.65;;
44722;SDS011;30451;48.638;10.624;2023-04-01T04:45:39;2.30;;;1.70;;
44722;SDS011;30451;48.638;10.624;2023-04-01T04:48:06;2.42;;;1.60;;
44722;SDS011;30451;48.638;10.624;2023-04-01T04:50:33;2.60;;;2.00;;
44722;SDS011;30451;48.638;10.624;2023-04-01T04:52:58;2.63;;;1.73;;
44722;SDS011;30451;48.638;10.624;2023-04-01T04:55:24;2.72;;;1.98;;
44722;SDS011;30451;48.638;10.624;2023-04-01T04:57:50;2.80;;;1.85;;
44722;SDS011;30451;48.638;10.624;2023-04-01T05:00:15;2.50;;;1.70;;
44722;SDS011;30451;48.638;10.624;2023-04-01T05:02:41;2.63;;;1.58;;
44722;SDS011;30451;48.638;10.624;2023-04-01T05:05:07;2.55;;;1.63;;
44722;SDS011;30451;48.638;10.624;2023-04-01T05:07:33;2.40;;;1.60;;
44722;SDS011;30451;48.638;10.624;2023-04-01T05:09:59;2.55;;;1.77;;
44722;SDS011;30451;48.638;10.624;2023-04-01T05:12:25;2.38;;;1.65;;
44722;SDS011;30451;48.638;10.624;2023-04-01T05:14:50;2.10;;;1.40;;
44722;SDS011;30451;48.638;10.624;2023-04-01T05:17:16;2.10;;;1.48;;
44722;SDS011;30451;48.638;10.624;2023-04-01T05:19:41;2.03;;;1.45;;
44722;SDS011;30451;48.638;10.624;2023-04-01T05:22:07;2.17;;;1.50;;
44722;SDS011;30451;48.638;10.624;2023-04-01T05:24:33;2.30;;;1.50;;
44722;SDS011;30451;48.638;10.624;2023-04-01T05:26:59;2.20;;;1.50;;
44722;SDS011;30451;48.638;10.624;2023-04-01T05:29:25;1.77;;;1.27;;
44722;SDS011;30451;48.638;10.624;2023-04-01T05:31:51;1.73;;;1.25;;
44722;SDS011;30451;48.638;10.624;2023-04-01T05:34:17;2.40;;;1.48;;
44722;SDS011;30451;48.638;10.624;2023-04-01T05:36:43;2.22;;;1.50;;
44722;SDS011;30451;48.638;10.624;2023-04-01T05:39:09;1.92;;;1.25;;
44722;SDS011;30451;48.638;10.624;2023-04-01T05:41:35;2.17;;;1.50;;
44722;SDS011;30451;48.638;10.624;2023-04-01T05:44:01;2.20;;;1.30;;
44722;SDS011;30451;48.638;10.624;2023-04-01T05:46:28;2.00;;;1.50;;
44722;SDS011;30451;48.638;10.624;2023-04-01T05:48:54;2.72;;;1.70;;
44722;SDS011;30451;48.638;10.624;2023-04-01T05:51:19;1.70;;;1.30;;
44722;SDS011;30451;48.638;10.624;2023-04-01T05:53:45;2.08;;;1.45;;
44722;SDS011;30451;48.638;10.624;2023-04-01T05:56:11;1.85;;;1.20;;
44722;SDS011;30451;48.638;10.624;2023-04-01T05:58:37;2.20;;;1.30;;
44722;SDS011;30451;48.638;10.624;2023-04-01T06:01:07;1.80;;;1.30;;
44722;SDS011;30451;48.638;10.624;2023-04-01T06:03:35;1.80;;;1.30;;
44722;SDS011;30451;48.638;10.624;2023-04-01T06:06:01;1.67;;;1.30;;
44722;SDS011;30451;48.638;10.624;2023-04-01T06:08:27;1.90;;;1.27;;
44722;SDS011;30451;48.638;10.624;2023-04-01T06:24:28;1.70;;;1.20;;
44722;SDS011;30451;48.638;10.624;2023-04-01T06:32:42;1.70;;;1.10;;
44722;SDS011;30451;48.638;10.624;2023-04-01T06:54:44;1.20;;;0.90;;
44722;SDS011;30451;48.638;10.624;2023-04-01T06:57:22;1.17;;;1.00;;
44722;SDS011;30451;48.638;10.624;2023-04-01T06:59:59;1.63;;;1.10;;
44722;SDS011;30451;48.638;10.624;2023-04-01T07:05:18;1.48;;;0.82;;
44722;SDS011;30451;48.638;10.624;2023-04-01T07:07:45;1.73;;;1.00;;
44722;SDS011;30451;48.638;10.624;2023-04-01T07:13:14;0.75;;;0.70;;
44722;SDS011;30451;48.638;10.624;2023-04-01T07:15:54;0.80;;;0.80;;
44722;SDS011;30451;48.638;10.624;2023-04-01T07:18:37;1.30;;;0.85;;
44722;SDS011;30451;48.638;10.624;2023-04-01T07:21:43;1.23;;;0.88;;
44722;SDS011;30451;48.638;10.624;2023-04-01T07:24:39;1.20;;;0.80;;
44722;SDS011;30451;48.638;10.624;2023-04-01T07:26:59;0.70;;;0.70;;
44722;SDS011;30451;48.638;10.624;2023-04-01T07:29:25;1.23;;;0.85;;
44722;SDS011;30451;48.638;10.624;2023-04-01T07:34:27;0.80;;;0.60;;
44722;SDS011;30451;48.638;10.624;2023-04-01T07:37:06;0.73;;;0.70;;
44722;SDS011;30451;48.638;10.624;2023-04-01T07:42:16;1.02;;;0.82;;
44722;SDS011;30451;48.638;10.624;2023-04-01T07:56:19;0.88;;;0.70;;
44722;SDS011;30451;48.638;10.624;2023-04-01T08:01:48;1.27;;;0.80;;
44722;SDS011;30451;48.638;10.624;2023-04-01T08:09:41;0.65;;;0.60;;
44722;SDS011;30451;48.638;10.624;2023-04-01T08:23:13;1.15;;;0.60;;
44722;SDS011;30451;48.638;10.624;2023-04-01T08:25:48;0.70;;;0.52;;
44722;SDS011;30451;48.638;10.624;2023-04-01T08:28:32;0.70;;;0.60;;
44722;SDS011;30451;48.638;10.624;2023-04-01T08:31:04;0.70;;;0.60;;
44722;SDS011;30451;48.638;10.624;2023-04-01T08:33:35;0.73;;;0.50;;
44722;SDS011;30451;48.638;10.624;2023-04-01T08:36:10;0.90;;;0.60;;
44722;SDS011;30451;48.638;10.624;2023-04-01T08:39:11;0.60;;;0.60;;
44722;SDS011;30451;48.638;10.624;2023-04-01T08:44:39;0.50;;;0.50;;
44722;SDS011;30451;48.638;10.624;2023-04-01T08:55:56;0.50;;;0.50;;
44722;SDS011;30451;48.638;10.624;2023-04-01T09:01:41;0.57;;;0.55;;
44722;SDS011;30451;48.638;10.624;2023-04-01T09:07:19;0.90;;;0.60;;
44722;SDS011;30451;48.638;10.624;2023-04-01T09:12:48;1.30;;;0.60;;
44722;SDS011;30451;48.638;10.624;2023-04-01T09:18:16;0.75;;;0.60;;
44722;SDS011;30451;48.638;10.624;2023-04-01T09:21:03;0.70;;;0.70;;
44722;SDS011;30451;48.638;10.624;2023-04-01T09:35:20;0.70;;;0.50;;
44722;SDS011;30451;48.638;10.624;2023-04-01T09:46:18;0.70;;;0.60;;
44722;SDS011;30451;48.638;10.624;2023-04-01T09:55:17;0.63;;;0.40;;
44722;SDS011;30451;48.638;10.624;2023-04-01T09:58:01;0.40;;;0.40;;
44722;SDS011;30451;48.638;10.624;2023-04-01T10:03:40;0.77;;;0.60;;
44722;SDS011;30451;48.638;10.624;2023-04-01T10:18:16;0.80;;;0.60;;
44722;SDS011;30451;48.638;10.624;2023-04-01T10:24:10;0.88;;;0.50;;
44722;SDS011;30451;48.638;10.624;2023-04-01T10:26:52;0.73;;;0.60;;
44722;SDS011;30451;48.638;10.624;2023-04-01T10:51:23;0.70;;;0.52;;
44722;SDS011;30451;48.638;10.624;2023-04-01T11:11:13;0.65;;;0.65;;
44722;SDS011;30451;48.638;10.624;2023-04-01T11:33:34;0.85;;;0.63;;
44722;SDS011;30451;48.638;10.624;2023-04-01T11:39:11;1.33;;;0.80;;
44722;SDS011;30451;48.638;10.624;2023-04-01T11:44:34;0.95;;;0.68;;
44722;SDS011;30451;48.638;10.624;2023-04-01T11:50:21;1.15;;;0.70;;
44722;SDS011;30451;48.638;10.624;2023-04-01T11:53:13;2.00;;;0.88;;
44722;SDS011;30451;48.638;10.624;2023-04-01T12:18:25;2.25;;;0.80;;
44722;SDS011;30451;48.638;10.624;2023-04-01T12:21:17;1.67;;;0.80;;
44722;SDS011;30451;48.638;10.624;2023-04-01T12:24:05;1.52;;;0.82;;
44722;SDS011;30451;48.638;10.624;2023-04-01T12:41:14;2.40;;;0.90;;
44722;SDS011;30451;48.638;10.624;2023-04-01T12:52:12;1.70;;;0.85;;
44722;SDS011;30451;48.638;10.624;2023-04-01T13:06:28;1.50;;;0.90;;
44722;SDS011;30451;48.638;10.624;2023-04-01T13:14:24;1.02;;;0.70;;
44722;SDS011;30451;48.638;10.624;2023-04-01T13:17:34;1.75;;;0.70;;
44722;SDS011;30451;48.638;10.624;2023-04-01T13:26:20;1.40;;;0.85;;
44722;SDS011;30451;48.638;10.624;2023-04-01T13:28:26;2.03;;;0.80;;
44722;SDS011;30451;48.638;10.624;2023-04-01T13:36:49;1.88;;;0.90;;
44722;SDS011;30451;48.638;10.624;2023-04-01T13:45:21;1.27;;;0.60;;
44722;SDS011;30451;48.638;10.624;2023-04-01T13:50:43;1.35;;;0.70;;
44722;SDS011;30451;48.638;10.624;2023-04-01T13:58:57;1.25;;;0.80;;
44722;SDS011;30451;48.638;10.624;2023-04-01T14:04:21;1.08;;;0.70;;
44722;SDS011;30451;48.638;10.624;2023-04-01T14:07:31;1.60;;;0.80;;
44722;SDS011;30451;48.638;10.624;2023-04-01T14:13:10;1.00;;;0.63;;
44722;SDS011;30451;48.638;10.624;2023-04-01T14:21:23;1.75;;;0.80;;
44722;SDS011;30451;48.638;10.624;2023-04-01T14:24:14;1.55;;;0.65;;
44722;SDS011;30451;48.638;10.624;2023-04-01T14:32:27;0.97;;;0.70;;
44722;SDS011;30451;48.638;10.624;2023-04-01T14:35:25;1.05;;;0.70;;
44722;SDS011;30451;48.638;10.624;2023-04-01T14:38:23;1.65;;;0.70;;
44722;SDS011;30451;48.638;10.624;2023-04-01T14:41:00;1.60;;;0.70;;
44722;SDS011;30451;48.638;10.624;2023-04-01T14:43:41;1.08;;;0.70;;
44722;SDS011;30451;48.638;10.624;2023-04-01T14:48:56;1.08;;;0.60;;
44722;SDS011;30451;48.638;10.624;2023-04-01T14:54:14;1.00;;;0.60;;
44722;SDS011;30451;48.638;10.624;2023-04-01T14:56:43;2.17;;;0.82;;
44722;SDS011;30451;48.638;10.624;2023-04-01T15:07:57;1.88;;;0.70;;
44722;SDS011;30451;48.638;10.624;2023-04-01T15:18:41;0.93;;;0.60;;
44722;SDS011;30451;48.638;10.624;2023-04-01T15:21:18;0.90;;;0.60;;
44722;SDS011;30451;48.638;10.624;2023-04-01T15:23:54;1.50;;;0.70;;
44722;SDS011;30451;48.638;10.624;2023-04-01T15:26:58;1.33;;;0.68;;
44722;SDS011;30451;48.638;10.624;2023-04-01T15:40:21;1.02;;;0.60;;
44722;SDS011;30451;48.638;10.624;2023-04-01T15:43:35;0.60;;;0.57;;
44722;SDS011;30451;48.638;10.624;2023-04-01T15:48:55;2.20;;;0.70;;
44722;SDS011;30451;48.638;10.624;2023-04-01T15:54:25;0.88;;;0.60;;
44722;SDS011;30451;48.638;10.624;2023-04-01T15:59:42;2.10;;;0.57;;
44722;SDS011;30451;48.638;10.624;2023-04-01T16:02:51;1.23;;;0.60;;
44722;SDS011;30451;48.638;10.624;2023-04-01T16:23:01;0.82;;;0.68;;
44722;SDS011;30451;48.638;10.624;2023-04-01T16:25:43;0.93;;;0.63;;
44722;SDS011;30451;48.638;10.624;2023-04-01T16:34:08;0.98;;;0.50;;
44722;SDS011;30451;48.638;10.624;2023-04-01T16:39:37;1.10;;;0.60;;
44722;SDS011;30451;48.638;10.624;2023-04-01T16:47:23;0.50;;;0.50;;
44722;SDS011;30451;48.638;10.624;2023-04-01T16:53:08;1.15;;;0.60;;
44722;SDS011;30451;48.638;10.624;2023-04-01T16:55:44;0.75;;;0.50;;
44722;SDS011;30451;48.638;10.624;2023-04-01T16:58:26;0.65;;;0.50;;
44722;SDS011;30451;48.638;10.624;2023-04-01T17:01:05;0.60;;;0.60;;
44722;SDS011;30451;48.638;10.624;2023-04-01T17:03:44;1.17;;;0.55;;
44722;SDS011;30451;48.638;10.624;2023-04-01T17:11:27;0.70;;;0.60;;
44722;SDS011;30451;48.638;10.624;2023-04-01T17:16:34;0.50;;;0.50;;
44722;SDS011;30451;48.638;10.624;2023-04-01T17:22:02;2.30;;;0.60;;
44722;SDS011;30451;48.638;10.624;2023-04-01T17:30:31;0.93;;;0.50;;
44722;SDS011;30451;48.638;10.624;2023-04-01T17:33:37;0.52;;;0.45;;
44722;SDS011;30451;48.638;10.624;2023-04-01T17:36:16;0.60;;;0.50;;
44722;SDS011;30451;48.638;10.624;2023-04-01T17:41:42;0.55;;;0.50;;
44722;SDS011;30451;48.638;10.624;2023-04-01T17:47:00;1.13;;;0.60;;
44722;SDS011;30451;48.638;10.624;2023-04-01T17:49:49;0.95;;;0.60;;
44722;SDS011;30451;48.638;10.624;2023-04-01T17:52:46;1.08;;;0.60;;
44722;SDS011;30451;48.638;10.624;2023-04-01T18:06:34;0.88;;;0.65;;
44722;SDS011;30451;48.638;10.624;2023-04-01T18:09:13;1.08;;;0.68;;
44722;SDS011;30451;48.638;10.624;2023-04-01T18:20:36;0.93;;;0.55;;
44722;SDS011;30451;48.638;10.624;2023-04-01T18:26:22;0.50;;;0.50;;
44722;SDS011;30451;48.638;10.624;2023-04-01T18:29:18;1.17;;;0.50;;
44722;SDS011;30451;48.638;10.624;2023-04-01T18:31:39;0.60;;;0.50;;
44722;SDS011;30451;48.638;10.624;2023-04-01T18:34:37;0.82;;;0.40;;
44722;SDS011;30451;48.638;10.624;2023-04-01T18:37:16;0.40;;;0.40;;
44722;SDS011;30451;48.638;10.624;2023-04-01T18:43:21;0.60;;;0.50;;
44722;SDS011;30451;48.638;10.624;2023-04-01T18:46:07;0.75;;;0.50;;
44722;SDS011;30451;48.638;10.624;2023-04-01T18:54:04;1.08;;;0.40;;
44722;SDS011;30451;48.638;10.624;2023-04-01T18:56:41;1.42;;;0.43;;
44722;SDS011;30451;48.638;10.624;2023-04-01T19:01:46;0.60;;;0.55;;
44722;SDS011;30451;48.638;10.624;2023-04-01T19:06:59;0.93;;;0.47;;
44722;SDS011;30451;48.638;10.624;2023-04-01T19:09:46;1.08;;;0.52;;
44722;SDS011;30451;48.638;10.624;2023-04-01T19:15:08;1.27;;;0.60;;
44722;SDS011;30451;48.638;10.624;2023-04-01T19:21:04;2.20;;;0.70;;
44722;SDS011;30451;48.638;10.624;2023-04-01T19:29:02;1.05;;;0.65;;
44722;SDS011;30451;48.638;10.624;2023-04-01T19:34:36;1.38;;;0.77;;
44722;SDS011;30451;48.638;10.624;2023-04-01T19:43:00;1.33;;;0.60;;
44722;SDS011;30451;48.638;10.624;2023-04-01T19:59:29;1.23;;;0.50;;
44722;SDS011;30451;48.638;10.624;2023-04-01T20:07:19;1.35;;;0.60;;
44722;SDS011;30451;48.638;10.624;2023-04-01T20:10:07;1.58;;;0.65;;
44722;SDS011;30451;48.638;10.624;2023-04-01T20:15:47;1.83;;;0.50;;
44722;SDS011;30451;48.638;10.624;2023-04-01T20:18:25;0.80;;;0.60;;
44722;SDS011;30451;48.638;10.624;2023-04-01T20:21:03;1.60;;;0.60;;
44722;SDS011;30451;48.638;10.624;2023-04-01T20:23:46;1.38;;;0.68;;
44722;SDS011;30451;48.638;10.624;2023-04-01T20:26:33;1.40;;;0.70;;
44722;SDS011;30451;48.638;10.624;2023-04-01T20:45:58;1.33;;;0.40;;
44722;SDS011;30451;48.638;10.624;2023-04-01T20:48:56;1.15;;;0.55;;
44722;SDS011;30451;48.638;10.624;2023-04-01T20:51:35;1.75;;;0.50;;
44722;SDS011;30451;48.638;10.624;2023-04-01T21:05:30;0.85;;;0.50;;
44722;SDS011;30451;48.638;10.624;2023-04-01T21:14:27;1.15;;;0.60;;
44722;SDS011;30451;48.638;10.624;2023-04-01T21:19:51;1.10;;;0.50;;
44722;SDS011;30451;48.638;10.624;2023-04-01T21:22:32;1.30;;;0.50;;
44722;SDS011;30451;48.638;10.624;2023-04-01T21:30:35;1.02;;;0.50;;
44722;SDS011;30451;48.638;10.624;2023-04-01T21:41:41;0.82;;;0.60;;
44722;SDS011;30451;48.638;10.624;2023-04-01T21:45:05;0.60;;;0.50;;
44722;SDS011;30451;48.638;10.624;2023-04-01T21:47:42;0.90;;;0.40;;
44722;SDS011;30451;48.638;10.624;2023-04-01T21:56:09;1.90;;;0.60;;
44722;SDS011;30451;48.638;10.624;2023-04-01T22:01:40;0.60;;;0.50;;
44722;SDS011;30451;48.638;10.624;2023-04-01T22:04:24;0.80;;;0.60;;
44722;SDS011;30451;48.638;10.624;2023-04-01T22:09:59;0.45;;;0.40;;
44722;SDS011;30451;48.638;10.624;2023-04-01T22:12:43;0.52;;;0.52;;
44722;SDS011;30451;48.638;10.624;2023-04-01T22:15:40;1.00;;;0.60;;
44722;SDS011;30451;48.638;10.624;2023-04-01T22:21:05;0.90;;;0.50;;
44722;SDS011;30451;48.638;10.624;2023-04-01T22:26:44;0.80;;;0.50;;
44722;SDS011;30451;48.638;10.624;2023-04-01T22:29:37;1.48;;;0.90;;
44722;SDS011;30451;48.638;10.624;2023-04-01T22:32:23;0.65;;;0.47;;
44722;SDS011;30451;48.638;10.624;2023-04-01T22:36:05;1.40;;;0.70;;
44722;SDS011;30451;48.638;10.624;2023-04-01T22:38:21;0.80;;;0.57;;
44722;SDS011;30451;48.638;10.624;2023-04-01T22:43:51;1.48;;;0.80;;
44722;SDS011;30451;48.638;10.624;2023-04-01T22:46:26;0.70;;;0.60;;
44722;SDS011;30451;48.638;10.624;2023-04-01T22:49:12;0.40;;;0.40;;
44722;SDS011;30451;48.638;10.624;2023-04-01T22:51:55;0.70;;;0.60;;
44722;SDS011;30451;48.638;10.624;2023-04-01T22:54:24;0.88;;;0.57;;
44722;SDS011;30451;48.638;10.624;2023-04-01T23:01:58;1.27;;;0.60;;
44722;SDS011;30451;48.638;10.624;2023-04-01T23:04:31;0.85;;;0.52;;
44722;SDS011;30451;48.638;10.624;2023-04-01T23:07:02;0.90;;;0.50;;
44722;SDS011;30451;48.638;10.624;2023-04-01T23:09:41;0.90;;;0.50;;
44722;SDS011;30451;48.638;10.624;2023-04-01T23:12:09;0.57;;;0.50;;
44722;SDS011;30451;48.638;10.624;2023-04-01T23:23:19;1.67;;;0.60;;
44722;SDS011;30451;48.638;10.624;2023-04-01T23:25:31;1.35;;;0.60;;
44722;SDS011;30451;48.638;10.624;2023-04-01T23:33:50;0.45;;;0.45;;
44722;SDS011;30451;48.638;10.624;2023-04-01T23:36:09;0.88;;;0.50;;
44722;SDS011;30451;48.638;10.624;2023-04-01T23:38:38;0.65;;;0.50;;
44722;SDS011;30451;48.638;10.624;2023-04-01T23:41:09;1.00;;;0.43;;
44722;SDS011;30451;48.638;10.624;2023-04-01T23:44:01;0.57;;;0.40;;
44722;SDS011;30451;48.638;10.624;2023-04-01T23:46:30;0.75;;;0.50;;
44722;SDS011;30451;48.638;10.624;2023-04-01T23:48:59;1.77;;;0.60;;
44722;SDS011;30451;48.638;10.624;2023-04-01T23:51:28;1.30;;;0.47;;
44722;SDS011;30451;48.638;10.624;2023-04-01T23:54:10;1.98;;;0.57;;
44722;SDS011;30451;48.638;10.624;2023-04-01T23:56:46;0.65;;;0.50;;
44722;SDS011;30451;48.638;10.624;2023-04-01T23:59:22;0.60;;;0.50;;
